Time;durP1;ratioP1;P1;durP2;ratioP2;P2;SDS_P1;SDS_P2;PMS_P1;PMS_P2;Temp;Humidity;BMP_temperature;BMP_pressure;BME280_temperature;BME280_humidity;BME280_pressure;Samples;Min_cycle;Max_cycle;Signal;HPM_P1;HPM_P2
2021/01/22 00:01:01;;;;;;;4.13;1.45;;;;;;;10.40;71.06;97934.72;4921974;29;20052;-83
2021/01/22 00:03:27;;;;;;;4.30;1.30;;;;;;;10.39;71.23;97929.59;4907417;29;20048;-84
2021/01/22 00:05:54;;;;;;;2.15;1.20;;;;;;;10.41;71.31;97925.81;4918807;29;20048;-84
2021/01/22 00:08:22;;;;;;;1.33;1.02;;;;;;;10.39;71.33;97937.53;4913498;29;20056;-84
2021/01/22 00:10:48;;;;;;;2.47;1.40;;;;;;;10.33;71.55;97922.16;4896498;29;20052;-83
2021/01/22 00:13:14;;;;;;;2.45;1.10;;;;;;;10.34;71.39;97935.25;4914081;29;20059;-83
2021/01/22 00:15:41;;;;;;;1.70;1.20;;;;;;;10.36;71.54;97933.31;4911244;29;20054;-84
2021/01/22 00:18:08;;;;;;;1.98;1.00;;;;;;;10.34;71.89;97931.78;4912987;29;20405;-83
2021/01/22 00:20:35;;;;;;;3.40;1.08;;;;;;;10.31;71.93;97927.56;4914678;29;20056;-82
2021/01/22 00:23:04;;;;;;;3.47;0.93;;;;;;;10.30;71.76;97923.25;4913380;29;20048;-81
2021/01/22 00:25:32;;;;;;;3.88;1.30;;;;;;;10.36;71.99;97930.69;4894372;29;20052;-83
2021/01/22 00:28:03;;;;;;;2.10;1.35;;;;;;;10.41;71.75;97919.69;4900317;29;20052;-83
2021/01/22 00:30:31;;;;;;;1.73;1.15;;;;;;;10.45;71.82;97927.25;4913424;29;20083;-83
2021/01/22 00:32:57;;;;;;;2.75;1.17;;;;;;;10.41;72.29;97938.19;4912325;29;20055;-82
2021/01/22 00:35:25;;;;;;;3.35;1.27;;;;;;;10.41;72.14;97936.41;4913360;29;20073;-83
2021/01/22 00:37:51;;;;;;;2.10;1.30;;;;;;;10.47;72.24;97932.41;4894680;29;20055;-83
2021/01/22 00:40:17;;;;;;;2.53;1.10;;;;;;;10.45;72.19;97926.41;4898312;29;20114;-82
2021/01/22 00:42:44;;;;;;;3.92;1.30;;;;;;;10.40;72.39;97918.00;4912482;29;20055;-83
2021/01/22 00:45:10;;;;;;;1.60;1.30;;;;;;;10.37;73.02;97907.72;4911247;29;20160;-83
2021/01/22 00:47:37;;;;;;;1.77;1.20;;;;;;;10.36;72.60;97911.31;4913581;29;20054;-83
2021/01/22 00:50:04;;;;;;;2.90;1.40;;;;;;;10.37;72.26;97894.50;4918069;29;20052;-84
2021/01/22 00:52:31;;;;;;;3.38;1.20;;;;;;;10.33;72.15;97885.13;4920818;29;20044;-82
2021/01/22 00:54:58;;;;;;;2.42;1.13;;;;;;;10.33;71.96;97885.13;4902841;29;20062;-83
2021/01/22 00:57:25;;;;;;;2.10;1.20;;;;;;;10.27;72.42;97888.28;4903689;29;20049;-83
2021/01/22 00:59:51;;;;;;;2.88;1.30;;;;;;;10.28;72.42;97879.38;4926265;29;20143;-83
2021/01/22 01:02:17;;;;;;;3.28;1.42;;;;;;;10.33;71.73;97867.44;4928517;29;20055;-83
2021/01/22 01:04:44;;;;;;;2.30;1.58;;;;;;;10.40;71.39;97871.22;4915892;29;20070;-82
2021/01/22 01:07:13;;;;;;;4.78;1.40;;;;;;;10.40;71.48;97865.94;4930628;29;20035;-83
2021/01/22 01:09:39;;;;;;;2.60;1.20;;;;;;;10.43;71.33;97878.91;4912486;29;20131;-84
2021/01/22 01:12:06;;;;;;;3.10;1.50;;;;;;;10.40;71.39;97875.69;4934027;29;20119;-82
2021/01/22 01:14:32;;;;;;;3.58;1.40;;;;;;;10.49;71.02;97891.63;4917022;29;20086;-83
2021/01/22 01:16:59;;;;;;;2.67;1.20;;;;;;;10.51;70.64;97868.50;4915503;29;20133;-84
2021/01/22 01:19:28;;;;;;;3.42;1.42;;;;;;;10.57;70.33;97877.72;4916432;29;20108;-83
2021/01/22 01:21:55;;;;;;;3.10;1.35;;;;;;;10.59;70.67;97883.72;4925105;29;20524;-83
2021/01/22 01:24:21;;;;;;;2.33;1.45;;;;;;;10.58;70.20;97873.25;4910110;29;20051;-83
2021/01/22 01:26:47;;;;;;;3.45;1.75;;;;;;;10.56;70.20;97891.91;4910647;29;20197;-83
2021/01/22 01:29:14;;;;;;;4.35;1.90;;;;;;;10.59;70.60;97886.34;4917594;29;20052;-83
2021/01/22 01:31:40;;;;;;;2.65;1.65;;;;;;;10.61;70.49;97884.41;4932046;29;20059;-83
2021/01/22 01:34:07;;;;;;;3.47;1.30;;;;;;;10.59;70.84;97888.16;4929492;29;20040;-84
2021/01/22 01:36:33;;;;;;;2.67;1.27;;;;;;;10.55;71.22;97890.22;4934155;29;20056;-85
2021/01/22 01:39:01;;;;;;;2.45;1.25;;;;;;;10.48;71.30;97884.66;4921573;29;20048;-83
2021/01/22 01:41:27;;;;;;;1.65;1.10;;;;;;;10.45;71.42;97876.13;4933782;29;20874;-82
2021/01/22 01:43:53;;;;;;;2.50;1.30;;;;;;;10.44;71.69;97879.75;4915247;29;20136;-82
2021/01/22 01:46:20;;;;;;;3.17;1.48;;;;;;;10.40;71.31;97887.09;4935716;29;20096;-83
2021/01/22 01:48:49;;;;;;;2.35;1.30;;;;;;;10.40;71.92;97897.69;4933291;29;20044;-82
2021/01/22 01:51:16;;;;;;;2.60;1.35;;;;;;;10.34;72.46;97886.81;4936982;29;20098;-84
2021/01/22 01:53:44;;;;;;;1.52;1.30;;;;;;;10.36;72.43;97879.59;4935514;29;20054;-81
2021/01/22 01:56:10;;;;;;;2.35;1.30;;;;;;;10.25;73.12;97866.41;4935668;29;20052;-83
2021/01/22 01:58:37;;;;;;;2.47;1.40;;;;;;;10.23;72.69;97869.19;4934618;29;20056;-83
2021/01/22 02:01:08;;;;;;;2.70;1.70;;;;;;;10.18;73.31;97874.91;4906685;29;20044;-83
2021/01/22 02:03:35;;;;;;;2.97;1.50;;;;;;;10.21;73.25;97881.72;4904556;29;20105;-84
2021/01/22 02:06:04;;;;;;;2.00;1.40;;;;;;;10.15;73.59;97874.28;4922070;29;20048;-83
2021/01/22 02:08:32;;;;;;;2.67;1.17;;;;;;;10.12;73.64;97870.09;4924830;29;20063;-83
2021/01/22 02:11:01;;;;;;;3.15;1.60;;;;;;;10.15;74.21;97861.91;4906322;29;20078;-84
2021/01/22 02:13:31;;;;;;;3.20;1.35;;;;;;;10.03;75.16;97855.00;4911538;29;20695;-84
2021/01/22 02:15:59;;;;;;;3.72;1.40;;;;;;;9.96;75.49;97856.50;4926537;29;20037;-83
2021/01/22 02:18:29;;;;;;;2.90;1.30;;;;;;;9.91;75.40;97858.69;4933022;29;20060;-83
2021/01/22 02:21:32;;;;;;;2.97;1.80;;;;;;;9.84;75.48;97849.59;4918811;29;20044;-83
2021/01/22 02:24:06;;;;;;;1.73;1.20;;;;;;;9.86;75.38;97860.88;4844899;29;20050;-84
2021/01/22 02:26:58;;;;;;;1.63;1.20;;;;;;;9.84;75.25;97861.00;4912706;29;20067;-83
2021/01/22 02:29:25;;;;;;;;;;;;;;;9.88;75.14;97864.25;4923739;29;20120;-84
2021/01/22 02:31:54;;;;;;;2.17;1.02;;;;;;;9.92;74.83;97868.28;4927867;29;19933;-83
2021/01/22 02:34:25;;;;;;;1.27;1.00;;;;;;;9.92;74.70;97857.72;4925750;29;20040;-83
2021/01/22 02:36:57;;;;;;;2.45;0.95;;;;;;;9.95;74.97;97854.81;4915226;29;20048;-83
2021/01/22 02:39:26;;;;;;;1.58;0.70;;;;;;;9.95;74.96;97853.97;4916378;29;20064;-83
2021/01/22 02:41:57;;;;;;;1.27;0.80;;;;;;;9.93;75.16;97862.03;4921317;29;20040;-81
2021/01/22 02:44:23;;;;;;;1.48;0.73;;;;;;;10.03;74.92;97872.69;4917549;29;20044;-83
2021/01/22 02:46:49;;;;;;;1.67;0.77;;;;;;;10.01;74.63;97870.16;4923488;29;20124;-84
2021/01/22 02:49:17;;;;;;;0.73;0.70;;;;;;;10.02;74.73;97869.19;4925674;29;20078;-84
2021/01/22 02:51:46;;;;;;;2.58;0.70;;;;;;;10.00;74.77;97884.34;4919768;29;20072;-84
2021/01/22 02:54:13;;;;;;;2.10;0.60;;;;;;;10.00;74.93;97879.06;4906791;29;20059;-84
2021/01/22 02:56:51;;;;;;;2.25;0.60;;;;;;;9.99;74.43;97869.44;4913685;29;20055;-83
2021/01/22 02:59:34;;;;;;;1.13;0.50;;;;;;;9.98;74.81;97869.56;4931624;29;20051;-83
2021/01/22 03:02:19;;;;;;;1.25;0.75;;;;;;;9.98;74.86;97875.72;4933161;29;20116;-81
2021/01/22 03:04:47;;;;;;;0.93;0.65;;;;;;;9.97;75.08;97876.66;4929353;29;20104;-84
2021/01/22 03:07:29;;;;;;;1.73;0.60;;;;;;;9.98;74.88;97873.06;4933601;29;20068;-82
2021/01/22 03:09:59;;;;;;;2.35;0.65;;;;;;;9.98;74.89;97880.16;4935851;29;20048;-82
2021/01/22 03:12:28;;;;;;;0.77;0.73;;;;;;;9.96;75.14;97863.59;4915501;29;20104;-82
2021/01/22 03:14:57;;;;;;;2.75;0.77;;;;;;;9.98;74.96;97865.13;4935629;29;20055;-80
2021/01/22 03:17:24;;;;;;;2.50;0.83;;;;;;;9.97;75.39;97873.19;4933268;29;20067;-83
2021/01/22 03:19:51;;;;;;;1.10;0.63;;;;;;;9.96;75.09;97871.50;4911966;29;20523;-83
2021/01/22 03:22:17;;;;;;;2.28;0.82;;;;;;;9.97;74.90;97874.03;4930473;29;20107;-82
2021/01/22 03:24:44;;;;;;;2.67;0.60;;;;;;;10.03;75.09;97873.53;4929135;29;20036;-81
2021/01/22 03:27:12;;;;;;;3.65;1.00;;;;;;;10.04;74.72;97856.69;4911985;29;20047;-83
2021/01/22 03:29:39;;;;;;;2.00;0.85;;;;;;;10.01;75.29;97870.16;4904793;29;21040;-81
2021/01/22 03:32:06;;;;;;;3.53;0.80;;;;;;;9.99;74.86;97885.31;4913999;29;20131;-83
2021/01/22 03:34:33;;;;;;;1.77;0.70;;;;;;;9.97;75.06;97862.63;4927008;29;20059;-82
2021/01/22 03:37:02;;;;;;;2.63;0.80;;;;;;;9.95;74.74;97865.38;4914457;29;20051;-83
2021/01/22 03:39:34;;;;;;;2.03;0.82;;;;;;;9.97;74.53;97874.03;4928571;29;20501;-81
2021/01/22 03:42:03;;;;;;;2.65;0.77;;;;;;;9.97;74.80;97867.91;4916439;29;20052;-82
2021/01/22 03:44:29;;;;;;;2.15;0.88;;;;;;;9.99;75.15;97863.31;4899750;29;20111;-82
2021/01/22 03:46:58;;;;;;;2.17;1.00;;;;;;;9.99;74.40;97860.69;4918005;29;20052;-83
2021/01/22 03:49:24;;;;;;;2.55;0.88;;;;;;;9.97;74.53;97859.97;4921994;29;20052;-83
2021/01/22 03:51:51;;;;;;;2.83;1.00;;;;;;;9.95;74.39;97849.53;4907708;29;20544;-83
2021/01/22 03:54:17;;;;;;;1.88;0.90;;;;;;;10.01;74.46;97864.03;4922733;29;20064;-82
2021/01/22 03:56:43;;;;;;;2.97;0.88;;;;;;;9.98;74.36;97851.91;4909562;29;20075;-83
2021/01/22 03:59:10;;;;;;;2.42;0.90;;;;;;;9.98;74.87;97859.84;4921638;29;20048;-82
2021/01/22 04:01:37;;;;;;;1.95;0.95;;;;;;;9.99;74.35;97869.44;4921796;29;20048;-82
2021/01/22 04:04:04;;;;;;;3.17;0.93;;;;;;;10.01;74.08;97859.59;4911544;29;20070;-83
2021/01/22 04:06:35;;;;;;;5.75;0.75;;;;;;;10.03;74.37;97851.53;4914596;29;20134;-82
2021/01/22 04:09:01;;;;;;;3.83;1.00;;;;;;;10.05;73.46;97857.53;4922789;29;20084;-83
2021/01/22 04:11:29;;;;;;;1.00;0.73;;;;;;;10.02;74.16;97848.03;4916365;29;20135;-83
2021/01/22 04:13:55;;;;;;;3.35;0.95;;;;;;;10.02;73.80;97853.34;4920190;29;20099;-82
2021/01/22 04:16:22;;;;;;;4.10;1.00;;;;;;;9.98;73.73;97845.78;4918819;29;20059;-82
2021/01/22 04:18:51;;;;;;;5.93;1.50;;;;;;;10.07;73.04;97848.47;4896272;29;20067;-81
2021/01/22 04:21:17;;;;;;;3.03;0.93;;;;;;;10.08;73.05;97866.00;4913633;29;20051;-82
2021/01/22 04:23:44;;;;;;;3.00;1.17;;;;;;;10.10;73.09;97855.31;4918171;29;20052;-81
2021/01/22 04:26:10;;;;;;;5.07;0.90;;;;;;;10.08;73.27;97844.03;4915791;29;20155;-82
2021/01/22 04:28:37;;;;;;;4.40;0.95;;;;;;;10.11;73.07;97855.19;4920322;29;20037;-81
2021/01/22 04:31:04;;;;;;;2.63;0.85;;;;;;;10.17;72.41;97865.25;4911981;29;20481;-82
2021/01/22 04:33:31;;;;;;;3.28;1.08;;;;;;;10.17;73.07;97859.97;4907655;29;20114;-81
2021/01/22 04:35:57;;;;;;;2.38;0.73;;;;;;;10.17;72.87;97859.13;4926517;29;20054;-83
2021/01/22 04:38:25;;;;;;;3.33;1.00;;;;;;;10.15;72.73;97856.59;4929395;29;20108;-83
2021/01/22 04:40:52;;;;;;;3.00;1.05;;;;;;;10.27;72.76;97859.19;4934726;28;20048;-83
2021/01/22 04:43:18;;;;;;;3.92;1.17;;;;;;;10.21;72.61;97854.44;4916174;28;20095;-83
2021/01/22 04:45:44;;;;;;;5.93;1.02;;;;;;;10.31;72.75;97855.31;4933640;29;20046;-83
2021/01/22 04:48:11;;;;;;;4.72;1.23;;;;;;;10.24;73.09;97840.94;4936388;29;20036;-81
2021/01/22 04:50:38;;;;;;;3.80;1.02;;;;;;;10.24;73.14;97847.06;4915850;29;20217;-83
2021/01/22 04:53:09;;;;;;;4.55;1.30;;;;;;;10.22;73.21;97837.63;4931313;29;20103;-83
2021/01/22 04:55:40;;;;;;;2.42;1.10;;;;;;;10.21;73.70;97838.59;4920070;29;20092;-83
2021/01/22 04:58:08;;;;;;;4.03;1.25;;;;;;;10.18;73.59;97842.28;4917636;29;20056;-84
2021/01/22 05:00:35;;;;;;;2.25;1.17;;;;;;;10.14;73.80;97851.44;4920158;29;20498;-83
2021/01/22 05:03:04;;;;;;;4.75;0.90;;;;;;;10.13;74.27;97850.59;4905359;29;20084;-82
2021/01/22 05:05:31;;;;;;;2.97;1.10;;;;;;;10.22;73.26;97846.38;4918312;29;20091;-83
2021/01/22 05:07:57;;;;;;;3.22;1.00;;;;;;;10.17;73.40;97844.09;4915358;29;20056;-82
2021/01/22 05:10:23;;;;;;;5.25;1.08;;;;;;;10.15;73.80;97834.59;4915674;29;20059;-83
2021/01/22 05:12:50;;;;;;;5.63;1.40;;;;;;;10.17;73.21;97844.09;4903155;29;20063;-83
2021/01/22 05:15:16;;;;;;;4.03;1.27;;;;;;;10.15;73.41;97838.09;4918819;29;20067;-83
2021/01/22 05:18:05;;;;;;;1.75;0.70;;;;;;;10.14;73.31;97844.34;4924256;29;20143;-83
2021/01/22 05:20:43;;;;;;;4.47;1.17;;;;;;;10.18;73.30;97851.09;4923414;29;20060;-84
2021/01/22 05:23:11;;;;;;;4.43;1.10;;;;;;;10.18;73.32;97842.28;4918293;29;20056;-82
2021/01/22 05:26:00;;;;;;;7.47;1.08;;;;;;;10.18;73.13;97845.81;4915015;29;20052;-83
2021/01/22 05:28:41;;;;;;;3.72;0.90;;;;;;;10.17;73.19;97844.09;4928936;29;20055;-83
2021/01/22 05:31:08;;;;;;;;;;;;;;;10.19;73.53;97847.47;4910867;29;20166;-84
2021/01/22 05:33:37;;;;;;;3.83;1.05;;;;;;;10.18;73.24;97845.81;4924668;29;19942;-82
2021/01/22 05:36:26;;;;;;;5.82;1.10;;;;;;;10.23;73.04;97844.56;4917871;29;20461;-85
2021/01/22 05:38:54;;;;;;;5.03;0.75;;;;;;;10.25;72.80;97850.53;4900821;29;20056;-82
2021/01/22 05:41:21;;;;;;;2.45;1.00;;;;;;;10.24;72.86;97839.13;4913926;29;20582;-82
2021/01/22 05:43:50;;;;;;;5.40;1.15;;;;;;;10.23;73.20;97839.28;4914626;29;20058;-82
2021/01/22 05:46:22;;;;;;;4.22;1.10;;;;;;;10.16;73.48;97845.06;4916073;29;20055;-82
2021/01/22 05:49:12;;;;;;;2.92;0.90;;;;;;;10.16;73.47;97841.56;4915661;29;20136;-81
2021/01/22 05:51:40;;;;;;;3.95;0.90;;;;;;;10.16;73.42;97841.56;4896907;29;20134;-83
2021/01/22 05:54:06;;;;;;;4.85;0.98;;;;;;;10.16;73.22;97853.00;4901581;29;20048;-82
2021/01/22 05:56:33;;;;;;;2.83;1.02;;;;;;;10.22;72.93;97842.91;4901674;29;20060;-83
2021/01/22 05:59:13;;;;;;;2.53;1.05;;;;;;;10.24;72.98;97851.50;4915569;29;20068;-83
2021/01/22 06:01:40;;;;;;;3.75;1.25;;;;;;;10.27;72.89;97860.03;4915479;29;20056;-83
2021/01/22 06:04:07;;;;;;;4.50;1.00;;;;;;;10.24;73.83;97864.75;4903752;29;20084;-82
2021/01/22 06:06:34;;;;;;;2.38;0.90;;;;;;;10.22;73.68;97867.53;4905320;29;20095;-83
2021/01/22 06:09:03;;;;;;;6.93;1.63;;;;;;;10.18;74.58;97866.97;4909839;29;20075;-84
2021/01/22 06:11:32;;;;;;;2.38;1.00;;;;;;;10.09;74.82;97862.41;4920475;29;20082;-83
2021/01/22 06:14:04;;;;;;;6.03;1.25;;;;;;;10.10;74.72;97865.88;4909990;29;20151;-83
2021/01/22 06:16:31;;;;;;;4.07;1.15;;;;;;;10.07;75.09;97874.91;4916125;29;20052;-84
2021/01/22 06:18:59;;;;;;;3.72;0.93;;;;;;;10.05;75.36;97866.31;4917626;29;20052;-83
2021/01/22 06:21:27;;;;;;;4.38;1.10;;;;;;;10.03;75.86;97872.69;4914925;29;20048;-85
2021/01/22 06:24:03;;;;;;;4.70;1.23;;;;;;;9.96;76.90;97869.69;4917865;29;20044;-82
2021/01/22 06:26:31;;;;;;;9.15;1.45;;;;;;;9.91;76.53;97879.84;4912229;29;20048;-84
2021/01/22 06:29:03;;;;;;;6.10;1.77;;;;;;;9.81;77.54;97878.94;4897515;29;20048;-81
2021/01/22 06:31:30;;;;;;;5.55;1.45;;;;;;;9.85;77.34;97896.22;4917457;29;20402;-81
2021/01/22 06:33:57;;;;;;;5.00;1.80;;;;;;;9.86;77.75;97913.75;4898081;29;20132;-84
2021/01/22 06:36:24;;;;;;;1.88;0.68;;;;;;;9.85;76.41;97944.63;4899807;29;20053;-82
2021/01/22 06:38:51;;;;;;;2.58;0.43;;;;;;;9.67;74.12;97958.50;4916500;29;20115;-83
2021/01/22 06:41:24;;;;;;;1.77;0.30;;;;;;;9.35;73.84;97964.59;4901138;29;20052;-85
2021/01/22 06:43:52;;;;;;;1.10;0.20;;;;;;;9.09;74.59;97986.97;4917781;29;21498;-84
2021/01/22 06:46:24;;;;;;;4.13;0.50;;;;;;;8.81;76.90;97977.75;4899725;29;20119;-84
2021/01/22 06:48:55;;;;;;;0.63;0.20;;;;;;;8.51;77.20;97975.66;4914242;29;20060;-84
2021/01/22 06:51:24;;;;;;;0.45;0.30;;;;;;;8.15;79.65;98000.41;4918781;29;20112;-84
2021/01/22 06:54:09;;;;;;;1.60;0.40;;;;;;;7.94;79.88;97997.56;4921252;29;20108;-84
2021/01/22 06:56:48;;;;;;;1.58;0.30;;;;;;;7.70;81.21;97968.63;4920821;29;20151;-83
2021/01/22 06:59:37;;;;;;;3.70;0.30;;;;;;;7.48;82.47;98004.50;4919098;29;20059;-81
2021/01/22 07:02:39;;;;;;;1.13;0.30;;;;;;;7.33;83.55;98020.47;4920616;29;20052;-82
2021/01/22 07:05:28;;;;;;;1.77;0.40;;;;;;;7.23;84.74;98011.56;4918800;29;20484;-82
2021/01/22 07:07:55;;;;;;;0.82;0.35;;;;;;;7.14;86.09;98027.97;4925531;29;20083;-81
2021/01/22 07:10:58;;;;;;;3.85;0.52;;;;;;;7.00;86.23;98036.84;4926007;29;20037;-82
2021/01/22 07:13:38;;;;;;;1.98;0.30;;;;;;;6.95;88.03;98038.09;4927440;29;20072;-82
2021/01/22 07:16:10;;;;;;;0.98;0.20;;;;;;;6.83;87.61;98044.22;4913959;29;20164;-83
2021/01/22 07:18:52;;;;;;;2.45;0.80;;;;;;;6.67;88.60;98047.91;4929778;29;20136;-81
2021/01/22 07:21:27;;;;;;;1.52;0.45;;;;;;;6.60;88.56;98054.56;4918729;29;20048;-82
2021/01/22 07:24:02;;;;;;;3.22;0.55;;;;;;;6.36;89.36;98056.19;4916321;29;20052;-81
2021/01/22 07:26:37;;;;;;;1.40;0.30;;;;;;;6.25;90.05;98064.81;4886981;29;20052;-82
2021/01/22 07:29:21;;;;;;;0.38;0.30;;;;;;;6.15;90.25;98062.84;4924670;29;20051;-82
2021/01/22 07:31:50;;;;;;;1.50;0.40;;;;;;;6.02;88.71;98069.88;4928492;29;20052;-82
2021/01/22 07:34:43;;;;;;;1.17;0.50;;;;;;;5.90;89.06;98068.88;4919381;29;20064;-83
2021/01/22 07:37:12;;;;;;;0.70;0.40;;;;;;;5.92;89.85;98080.16;4920313;29;20134;-81
2021/01/22 07:39:39;;;;;;;0.30;0.28;;;;;;;5.84;90.09;98085.00;4923076;29;20489;-81
2021/01/22 07:42:07;;;;;;;1.63;0.28;;;;;;;5.80;89.22;98086.16;4917154;29;20052;-83
2021/01/22 07:44:35;;;;;;;0.73;0.28;;;;;;;5.66;89.35;98086.22;4934096;29;20044;-82
2021/01/22 07:47:02;;;;;;;1.05;0.30;;;;;;;5.53;89.25;98088.75;4911131;29;20068;-83
2021/01/22 07:49:31;;;;;;;1.75;0.47;;;;;;;5.43;88.89;98085.03;4928841;29;20064;-82
2021/01/22 07:52:06;;;;;;;2.83;0.43;;;;;;;5.37;89.42;98088.84;4934512;29;20044;-81
2021/01/22 07:54:42;;;;;;;1.08;0.35;;;;;;;5.43;91.26;98092.91;4913495;29;20051;-82
2021/01/22 07:57:20;;;;;;;1.02;0.43;;;;;;;5.37;90.06;98098.50;4926008;29;20070;-82
2021/01/22 07:59:47;;;;;;;1.75;0.30;;;;;;;5.34;90.33;98096.94;4914613;29;20078;-80
2021/01/22 08:02:24;;;;;;;1.40;0.60;;;;;;;5.32;90.54;98090.94;4928552;29;20062;-82
2021/01/22 08:05:03;;;;;;;1.33;0.40;;;;;;;5.37;90.83;98096.72;4909156;29;20056;-81
2021/01/22 08:07:32;;;;;;;2.05;0.50;;;;;;;5.38;91.17;98098.41;4926942;29;20052;-82
2021/01/22 08:09:58;;;;;;;2.50;0.40;;;;;;;5.40;90.97;98109.66;4912561;29;20048;-83
2021/01/22 08:12:26;;;;;;;1.30;0.40;;;;;;;5.37;91.44;98111.63;4928397;29;23466;-83
2021/01/22 08:14:52;;;;;;;0.82;0.60;;;;;;;5.40;89.80;98119.31;4911672;29;20048;-83
2021/01/22 08:17:19;;;;;;;1.80;0.30;;;;;;;5.34;91.55;98117.94;4927318;29;20048;-82
2021/01/22 08:19:49;;;;;;;1.52;0.43;;;;;;;5.29;90.37;98123.47;4924811;29;20075;-82
2021/01/22 08:22:16;;;;;;;1.58;0.40;;;;;;;5.20;91.54;98131.03;4912507;29;20087;-80
2021/01/22 08:24:50;;;;;;;1.17;0.38;;;;;;;5.20;90.97;98137.13;4928402;29;20066;-81
2021/01/22 08:27:22;;;;;;;1.08;0.60;;;;;;;5.18;90.79;98133.78;4923638;29;20056;-80
2021/01/22 08:29:51;;;;;;;2.35;0.40;;;;;;;5.15;91.94;98133.13;4913745;29;20119;-80
2021/01/22 08:32:18;;;;;;;3.22;0.50;;;;;;;5.11;91.93;98126.38;4913754;29;20031;-80
2021/01/22 08:34:46;;;;;;;1.15;0.40;;;;;;;5.15;93.13;98123.47;4930293;29;20146;-81
2021/01/22 08:37:17;;;;;;;0.52;0.20;;;;;;;5.22;92.23;98126.53;4913795;29;20052;-82
2021/01/22 08:39:58;;;;;;;5.25;0.80;;;;;;;5.17;92.18;98129.47;4934211;29;20079;-81
2021/01/22 08:42:27;;;;;;;0.65;0.25;;;;;;;5.19;92.63;98145.13;4914853;29;20163;-81
2021/01/22 08:45:02;;;;;;;0.77;0.20;;;;;;;5.17;92.69;98153.09;4918472;29;20036;-82
2021/01/22 08:47:39;;;;;;;3.47;0.52;;;;;;;5.20;92.84;98152.88;4933921;29;20079;-82
2021/01/22 08:50:07;;;;;;;7.40;0.60;;;;;;;5.20;92.75;98163.38;4920372;29;20040;-83
2021/01/22 08:52:33;;;;;;;1.08;0.38;;;;;;;5.18;92.54;98169.69;4919425;29;20108;-84
2021/01/22 08:54:59;;;;;;;1.02;0.30;;;;;;;5.13;92.47;98171.72;4932561;29;20083;-84
2021/01/22 08:57:28;;;;;;;2.67;0.50;;;;;;;5.12;92.38;98178.75;4941113;29;20068;-83
2021/01/22 08:59:59;;;;;;;1.05;0.40;;;;;;;5.18;93.08;98188.03;4912919;29;20095;-82
2021/01/22 09:02:36;;;;;;;1.33;0.40;;;;;;;5.28;93.51;98197.88;4924998;29;20111;-82
2021/01/22 09:05:10;;;;;;;2.40;0.73;;;;;;;5.31;93.75;98202.09;4911105;29;20063;-80
2021/01/22 09:07:38;;;;;;;2.72;0.60;;;;;;;5.26;93.82;98205.00;4910066;29;20055;-84
2021/01/22 09:10:25;;;;;;;0.98;0.60;;;;;;;5.24;93.08;98199.00;4911766;29;20071;-87
2021/01/22 09:12:51;;;;;;;0.93;0.60;;;;;;;5.25;91.10;98198.06;4931746;29;20038;-86
2021/01/22 09:15:19;;;;;;;0.85;0.63;;;;;;;5.14;91.42;98210.13;4922565;29;20066;-84
2021/01/22 09:17:50;;;;;;;2.63;0.70;;;;;;;5.08;91.96;98211.34;4932987;29;20059;-84
2021/01/22 09:20:26;;;;;;;1.00;0.50;;;;;;;5.14;91.63;98215.38;4935709;29;20040;-83
2021/01/22 09:23:02;;;;;;;2.65;0.50;;;;;;;5.16;92.24;98227.47;4922592;29;20052;-82
2021/01/22 09:25:29;;;;;;;2.72;0.52;;;;;;;5.05;91.00;98231.66;4944109;28;20086;-82
2021/01/22 09:27:55;;;;;;;2.97;0.77;;;;;;;5.18;92.01;98240.50;4922881;29;20040;-83
2021/01/22 09:30:26;;;;;;;3.42;0.90;;;;;;;5.21;91.88;98246.41;4924885;29;20171;-83
2021/01/22 09:32:55;;;;;;;1.83;0.80;;;;;;;5.25;92.51;98250.53;4938064;29;20072;-83
2021/01/22 09:35:29;;;;;;;1.80;0.60;;;;;;;5.24;92.90;98248.84;4934192;29;20044;-80
2021/01/22 09:37:58;;;;;;;;;;;;;;;5.31;92.59;98254.59;4922427;29;20039;-80
2021/01/22 09:40:25;;;;;;;1.45;0.40;;;;;;;5.31;93.35;98256.38;4937766;29;19947;-83
2021/01/22 09:42:51;;;;;;;0.55;0.47;;;;;;;5.29;91.57;98267.78;4939404;29;20052;-81
2021/01/22 09:45:19;;;;;;;0.57;0.28;;;;;;;5.31;91.38;98270.34;4914853;29;20044;-84
2021/01/22 09:47:46;;;;;;;2.20;0.32;;;;;;;5.32;91.51;98272.03;4930544;29;20056;-83
2021/01/22 09:50:16;;;;;;;2.40;0.60;;;;;;;5.29;92.09;98275.66;4915320;29;20063;-82
2021/01/22 09:52:45;;;;;;;1.73;0.30;;;;;;;5.20;91.44;98275.34;4934396;29;20111;-83
2021/01/22 09:55:17;;;;;;;3.22;0.52;;;;;;;5.28;89.66;98281.00;4913385;29;20051;-83
2021/01/22 09:57:44;;;;;;;1.42;0.50;;;;;;;5.34;90.34;98287.69;4926257;29;20047;-80
2021/01/22 10:00:14;;;;;;;3.83;1.10;;;;;;;5.35;90.80;98287.59;4928533;29;20316;-81
2021/01/22 10:02:42;;;;;;;1.85;0.55;;;;;;;5.36;91.74;98289.25;4920808;29;20055;-84
2021/01/22 10:05:10;;;;;;;1.23;0.60;;;;;;;5.34;91.70;98296.41;4922276;29;21089;-83
2021/01/22 10:07:36;;;;;;;1.50;0.30;;;;;;;5.32;91.65;98293.03;4923387;29;20040;-83
2021/01/22 10:10:05;;;;;;;0.40;0.30;;;;;;;5.33;90.69;98304.34;4909155;29;20077;-81
2021/01/22 10:12:31;;;;;;;4.63;0.40;;;;;;;5.26;90.96;98304.72;4908319;29;20138;-83
2021/01/22 10:14:58;;;;;;;0.40;0.30;;;;;;;5.19;91.40;98303.41;4922430;29;20357;-81
2021/01/22 10:17:27;;;;;;;1.27;0.32;;;;;;;5.11;91.41;98305.59;4912237;29;20080;-82
2021/01/22 10:19:56;;;;;;;1.42;0.40;;;;;;;5.04;91.30;98312.13;4928125;29;20080;-81
2021/01/22 10:22:23;;;;;;;0.95;0.40;;;;;;;4.92;91.71;98304.97;4924380;29;20059;-83
2021/01/22 10:24:49;;;;;;;0.73;0.60;;;;;;;4.99;92.20;98318.59;4923838;29;20052;-82
2021/01/22 10:27:19;;;;;;;1.25;0.57;;;;;;;4.99;93.09;98313.34;4910417;29;20063;-81
2021/01/22 10:29:46;;;;;;;1.35;0.30;;;;;;;5.01;91.97;98301.00;4929790;29;20458;-83
2021/01/22 10:32:12;;;;;;;0.73;0.40;;;;;;;4.99;92.92;98301.06;4926008;29;20048;-81
2021/01/22 10:34:39;;;;;;;0.77;0.40;;;;;;;5.00;93.06;98308.00;4924753;29;20068;-79
2021/01/22 10:37:09;;;;;;;;;;;;;;;5.05;93.36;98315.59;4908764;29;20159;-84
2021/01/22 10:39:35;;;;;;;1.23;0.60;;;;;;;5.02;92.98;98308.78;4927930;29;19938;-82
2021/01/22 10:42:02;;;;;;;1.75;0.50;;;;;;;5.03;91.48;98313.09;4911670;29;20133;-82
2021/01/22 10:44:28;;;;;;;1.42;0.52;;;;;;;4.97;91.04;98307.34;4909833;29;20052;-83
2021/01/22 10:46:54;;;;;;;3.70;0.52;;;;;;;4.93;91.67;98318.00;4923078;29;20060;-82
2021/01/22 10:49:21;;;;;;;2.20;0.70;;;;;;;4.89;91.36;98326.13;4926745;29;20040;-83
2021/01/22 10:51:47;;;;;;;1.17;0.43;;;;;;;4.88;92.01;98319.19;4925765;29;20059;-83
2021/01/22 10:54:14;;;;;;;1.95;0.65;;;;;;;4.80;92.38;98317.00;4930451;29;20052;-83
2021/01/22 10:56:42;;;;;;;1.45;0.40;;;;;;;4.79;91.69;98314.47;4915075;29;20119;-84
2021/01/22 10:59:08;;;;;;;0.82;0.50;;;;;;;4.76;91.44;98309.41;4908081;29;20051;-83
2021/01/22 11:01:34;;;;;;;2.83;0.50;;;;;;;4.76;90.73;98314.63;4933653;29;20073;-84
2021/01/22 11:04:02;;;;;;;1.00;0.30;;;;;;;4.67;91.61;98315.16;4916749;29;20048;-82
2021/01/22 11:06:28;;;;;;;0.85;0.40;;;;;;;4.68;91.98;98332.59;4915646;29;20052;-83
2021/01/22 11:08:55;;;;;;;3.75;0.63;;;;;;;4.67;92.16;98333.53;4934523;29;20044;-83
2021/01/22 11:11:25;;;;;;;1.25;0.75;;;;;;;4.66;92.26;98337.91;4921161;29;20036;-83
2021/01/22 11:13:51;;;;;;;2.33;0.50;;;;;;;4.64;93.05;98329.28;4920107;29;20033;-81
2021/01/22 11:16:21;;;;;;;0.68;0.40;;;;;;;4.63;93.31;98324.97;4936790;29;20058;-81
2021/01/22 11:18:47;;;;;;;1.00;0.60;;;;;;;4.67;93.68;98336.97;4911108;29;20048;-82
2021/01/22 11:21:14;;;;;;;1.13;0.73;;;;;;;4.69;93.73;98316.78;4912268;29;20567;-83
2021/01/22 11:23:41;;;;;;;0.70;0.50;;;;;;;4.78;93.09;98328.50;4928996;29;20070;-82
2021/01/22 11:26:08;;;;;;;1.40;0.80;;;;;;;4.83;93.17;98329.09;4928923;29;20109;-82
2021/01/22 11:28:34;;;;;;;2.55;0.75;;;;;;;4.87;93.94;98328.00;4935387;29;20054;-83
2021/01/22 11:31:02;;;;;;;0.90;0.70;;;;;;;4.89;93.66;98326.13;4930926;29;20040;-82
2021/01/22 11:33:29;;;;;;;2.67;0.60;;;;;;;4.92;91.66;98326.78;4913629;29;20051;-82
2021/01/22 11:35:55;;;;;;;0.90;0.47;;;;;;;4.85;91.26;98322.00;4930895;29;20570;-83
2021/01/22 11:38:23;;;;;;;0.75;0.75;;;;;;;4.77;92.98;98327.66;4929434;29;20123;-83
2021/01/22 11:40:49;;;;;;;1.58;0.50;;;;;;;4.86;92.21;98334.19;4930966;29;20052;-82
2021/01/22 11:43:16;;;;;;;0.93;0.60;;;;;;;4.93;92.22;98343.38;4932411;29;20049;-83
2021/01/22 11:45:42;;;;;;;2.20;1.00;;;;;;;4.83;91.27;98363.19;4918487;29;20055;-82
2021/01/22 11:48:12;;;;;;;2.15;0.98;;;;;;;4.78;91.65;98365.22;4919634;29;20059;-83
2021/01/22 11:50:38;;;;;;;2.35;0.95;;;;;;;4.70;90.54;98367.44;4937361;29;20187;-83